sensor_id;sensor_type;location;lat;lon;timestamp;P1;durP1;ratioP1;P2;durP2;ratioP2
33108;SDS011;19481;51.118;6.940;2023-11-21T00:04:40;2.65;;;1.40;;
33108;SDS011;19481;51.118;6.940;2023-11-21T00:09:42;3.40;;;1.35;;
33108;SDS011;19481;51.118;6.940;2023-11-21T00:14:44;1.45;;;1.35;;
33108;SDS011;19481;51.118;6.940;2023-11-21T00:19:46;1.30;;;1.20;;
33108;SDS011;19481;51.118;6.940;2023-11-21T00:24:48;1.55;;;1.30;;
33108;SDS011;19481;51.118;6.940;2023-11-21T00:29:51;1.40;;;1.30;;
33108;SDS011;19481;51.118;6.940;2023-11-21T00:34:53;2.55;;;1.27;;
33108;SDS011;19481;51.118;6.940;2023-11-21T00:39:55;0.93;;;0.90;;
33108;SDS011;19481;51.118;6.940;2023-11-21T00:44:58;3.67;;;1.40;;
33108;SDS011;19481;51.118;6.940;2023-11-21T00:50:00;1.48;;;1.20;;
33108;SDS011;19481;51.118;6.940;2023-11-21T00:55:01;2.28;;;1.40;;
33108;SDS011;19481;51.118;6.940;2023-11-21T01:00:05;3.75;;;1.38;;
33108;SDS011;19481;51.118;6.940;2023-11-21T01:05:10;2.22;;;1.25;;
33108;SDS011;19481;51.118;6.940;2023-11-21T01:10:12;2.60;;;1.33;;
33108;SDS011;19481;51.118;6.940;2023-11-21T01:15:15;1.73;;;1.60;;
33108;SDS011;19481;51.118;6.940;2023-11-21T01:20:17;1.00;;;0.90;;
33108;SDS011;19481;51.118;6.940;2023-11-21T01:25:19;1.27;;;1.17;;
33108;SDS011;19481;51.118;6.940;2023-11-21T01:30:22;2.85;;;1.55;;
33108;SDS011;19481;51.118;6.940;2023-11-21T01:35:24;1.30;;;1.20;;
33108;SDS011;19481;51.118;6.940;2023-11-21T01:40:26;1.20;;;1.17;;
33108;SDS011;19481;51.118;6.940;2023-11-21T01:45:30;1.60;;;0.95;;
33108;SDS011;19481;51.118;6.940;2023-11-21T01:50:33;1.85;;;1.13;;
33108;SDS011;19481;51.118;6.940;2023-11-21T01:55:35;2.47;;;1.52;;
33108;SDS011;19481;51.118;6.940;2023-11-21T02:00:40;1.17;;;1.08;;
33108;SDS011;19481;51.118;6.940;2023-11-21T02:05:41;2.92;;;1.40;;
33108;SDS011;19481;51.118;6.940;2023-11-21T02:10:43;1.33;;;1.23;;
33108;SDS011;19481;51.118;6.940;2023-11-21T02:15:46;1.45;;;1.25;;
33108;SDS011;19481;51.118;6.940;2023-11-21T02:20:49;1.35;;;1.08;;
33108;SDS011;19481;51.118;6.940;2023-11-21T02:25:52;2.45;;;1.42;;
33108;SDS011;19481;51.118;6.940;2023-11-21T02:30:54;5.43;;;1.25;;
33108;SDS011;19481;51.118;6.940;2023-11-21T02:35:58;1.65;;;1.45;;
33108;SDS011;19481;51.118;6.940;2023-11-21T02:41:00;1.20;;;1.10;;
33108;SDS011;19481;51.118;6.940;2023-11-21T02:46:02;5.38;;;1.77;;
33108;SDS011;19481;51.118;6.940;2023-11-21T02:51:04;1.30;;;1.20;;
33108;SDS011;19481;51.118;6.940;2023-11-21T02:56:07;1.27;;;1.17;;
33108;SDS011;19481;51.118;6.940;2023-11-21T03:01:09;3.95;;;1.42;;
33108;SDS011;19481;51.118;6.940;2023-11-21T03:06:12;2.15;;;1.50;;
33108;SDS011;19481;51.118;6.940;2023-11-21T03:11:16;1.42;;;1.13;;
33108;SDS011;19481;51.118;6.940;2023-11-21T03:16:18;1.45;;;1.35;;
33108;SDS011;19481;51.118;6.940;2023-11-21T03:21:20;1.98;;;1.48;;
33108;SDS011;19481;51.118;6.940;2023-11-21T03:26:23;2.92;;;1.50;;
33108;SDS011;19481;51.118;6.940;2023-11-21T03:31:25;1.38;;;1.27;;
33108;SDS011;19481;51.118;6.940;2023-11-21T03:36:27;2.30;;;1.60;;
33108;SDS011;19481;51.118;6.940;2023-11-21T03:41:30;1.38;;;1.25;;
33108;SDS011;19481;51.118;6.940;2023-11-21T03:46:32;2.38;;;1.33;;
33108;SDS011;19481;51.118;6.940;2023-11-21T03:51:33;1.35;;;1.23;;
33108;SDS011;19481;51.118;6.940;2023-11-21T03:56:36;1.10;;;1.10;;
33108;SDS011;19481;51.118;6.940;2023-11-21T04:01:38;1.40;;;1.30;;
33108;SDS011;19481;51.118;6.940;2023-11-21T04:06:39;0.90;;;0.90;;
33108;SDS011;19481;51.118;6.940;2023-11-21T04:11:43;6.28;;;1.25;;
33108;SDS011;19481;51.118;6.940;2023-11-21T04:16:45;1.95;;;1.30;;
33108;SDS011;19481;51.118;6.940;2023-11-21T04:21:47;1.67;;;1.05;;
33108;SDS011;19481;51.118;6.940;2023-11-21T04:26:50;1.88;;;1.10;;
33108;SDS011;19481;51.118;6.940;2023-11-21T04:31:51;1.63;;;1.35;;
33108;SDS011;19481;51.118;6.940;2023-11-21T04:36:53;1.73;;;1.38;;
33108;SDS011;19481;51.118;6.940;2023-11-21T04:41:56;1.90;;;1.60;;
33108;SDS011;19481;51.118;6.940;2023-11-21T04:46:58;1.70;;;1.58;;
33108;SDS011;19481;51.118;6.940;2023-11-21T04:51:59;6.43;;;1.77;;
33108;SDS011;19481;51.118;6.940;2023-11-21T04:57:03;1.73;;;1.45;;
33108;SDS011;19481;51.118;6.940;2023-11-21T05:02:05;1.85;;;1.20;;
33108;SDS011;19481;51.118;6.940;2023-11-21T05:07:06;1.50;;;1.40;;
33108;SDS011;19481;51.118;6.940;2023-11-21T05:12:09;1.70;;;1.52;;
33108;SDS011;19481;51.118;6.940;2023-11-21T05:17:12;1.60;;;1.42;;
33108;SDS011;19481;51.118;6.940;2023-11-21T05:22:14;1.73;;;1.20;;
33108;SDS011;19481;51.118;6.940;2023-11-21T05:27:17;2.90;;;1.08;;
33108;SDS011;19481;51.118;6.940;2023-11-21T05:32:19;2.33;;;1.45;;
33108;SDS011;19481;51.118;6.940;2023-11-21T05:37:20;2.45;;;1.30;;
33108;SDS011;19481;51.118;6.940;2023-11-21T05:42:24;1.70;;;1.35;;
33108;SDS011;19481;51.118;6.940;2023-11-21T05:47:26;2.35;;;1.50;;
33108;SDS011;19481;51.118;6.940;2023-11-21T05:52:28;4.07;;;1.25;;
33108;SDS011;19481;51.118;6.940;2023-11-21T05:57:31;3.47;;;1.23;;
33108;SDS011;19481;51.118;6.940;2023-11-21T06:02:32;1.30;;;1.20;;
33108;SDS011;19481;51.118;6.940;2023-11-21T06:07:34;1.55;;;1.20;;
33108;SDS011;19481;51.118;6.940;2023-11-21T06:12:38;3.47;;;1.83;;
33108;SDS011;19481;51.118;6.940;2023-11-21T06:17:40;1.45;;;1.35;;
33108;SDS011;19481;51.118;6.940;2023-11-21T06:22:42;1.10;;;1.10;;
33108;SDS011;19481;51.118;6.940;2023-11-21T06:27:46;1.80;;;1.42;;
33108;SDS011;19481;51.118;6.940;2023-11-21T06:32:48;4.07;;;1.58;;
33108;SDS011;19481;51.118;6.940;2023-11-21T06:37:51;2.35;;;1.35;;
33108;SDS011;19481;51.118;6.940;2023-11-21T06:42:54;4.70;;;1.23;;
33108;SDS011;19481;51.118;6.940;2023-11-21T06:47:55;3.75;;;1.20;;
33108;SDS011;19481;51.118;6.940;2023-11-21T06:52:57;1.05;;;1.00;;
33108;SDS011;19481;51.118;6.940;2023-11-21T06:58:00;1.92;;;1.20;;
33108;SDS011;19481;51.118;6.940;2023-11-21T07:03:02;1.42;;;1.33;;
33108;SDS011;19481;51.118;6.940;2023-11-21T07:08:04;1.50;;;1.40;;
33108;SDS011;19481;51.118;6.940;2023-11-21T07:13:08;1.58;;;1.35;;
33108;SDS011;19481;51.118;6.940;2023-11-21T07:18:12;6.88;;;1.52;;
33108;SDS011;19481;51.118;6.940;2023-11-21T07:23:14;1.65;;;1.20;;
33108;SDS011;19481;51.118;6.940;2023-11-21T07:28:17;6.15;;;1.30;;
33108;SDS011;19481;51.118;6.940;2023-11-21T07:33:18;1.45;;;1.35;;
33108;SDS011;19481;51.118;6.940;2023-11-21T07:38:21;3.83;;;1.45;;
33108;SDS011;19481;51.118;6.940;2023-11-21T07:43:24;2.05;;;1.50;;
33108;SDS011;19481;51.118;6.940;2023-11-21T07:48:26;2.13;;;1.38;;
33108;SDS011;19481;51.118;6.940;2023-11-21T07:53:27;3.03;;;1.70;;
33108;SDS011;19481;51.118;6.940;2023-11-21T07:58:31;4.07;;;1.70;;
33108;SDS011;19481;51.118;6.940;2023-11-21T08:03:33;2.42;;;1.73;;
33108;SDS011;19481;51.118;6.940;2023-11-21T08:08:35;4.15;;;1.73;;
33108;SDS011;19481;51.118;6.940;2023-11-21T08:13:38;3.67;;;1.75;;
33108;SDS011;19481;51.118;6.940;2023-11-21T08:18:41;3.45;;;1.83;;
33108;SDS011;19481;51.118;6.940;2023-11-21T08:23:42;2.92;;;1.73;;
33108;SDS011;19481;51.118;6.940;2023-11-21T08:28:45;1.77;;;1.30;;
33108;SDS011;19481;51.118;6.940;2023-11-21T08:33:48;4.68;;;1.67;;
33108;SDS011;19481;51.118;6.940;2023-11-21T08:38:49;3.85;;;1.92;;
33108;SDS011;19481;51.118;6.940;2023-11-21T08:43:53;4.63;;;2.10;;
33108;SDS011;19481;51.118;6.940;2023-11-21T08:48:55;2.13;;;1.60;;
33108;SDS011;19481;51.118;6.940;2023-11-21T08:53:57;3.80;;;1.52;;
33108;SDS011;19481;51.118;6.940;2023-11-21T08:59:02;4.65;;;1.67;;
33108;SDS011;19481;51.118;6.940;2023-11-21T09:04:04;9.00;;;2.30;;
33108;SDS011;19481;51.118;6.940;2023-11-21T09:09:06;6.07;;;2.30;;
33108;SDS011;19481;51.118;6.940;2023-11-21T09:14:11;4.97;;;2.67;;
33108;SDS011;19481;51.118;6.940;2023-11-21T09:19:16;6.55;;;1.98;;
33108;SDS011;19481;51.118;6.940;2023-11-21T09:24:17;6.22;;;2.45;;
33108;SDS011;19481;51.118;6.940;2023-11-21T09:29:20;3.63;;;1.83;;
33108;SDS011;19481;51.118;6.940;2023-11-21T09:34:22;5.45;;;1.83;;
33108;SDS011;19481;51.118;6.940;2023-11-21T09:39:23;11.95;;;2.63;;
33108;SDS011;19481;51.118;6.940;2023-11-21T09:44:29;6.38;;;2.65;;
33108;SDS011;19481;51.118;6.940;2023-11-21T09:49:36;4.88;;;2.55;;
33108;SDS011;19481;51.118;6.940;2023-11-21T09:54:40;8.63;;;2.63;;
33108;SDS011;19481;51.118;6.940;2023-11-21T09:59:43;10.32;;;3.05;;
33108;SDS011;19481;51.118;6.940;2023-11-21T10:04:48;5.90;;;2.72;;
33108;SDS011;19481;51.118;6.940;2023-11-21T10:09:50;11.82;;;2.72;;
33108;SDS011;19481;51.118;6.940;2023-11-21T10:14:55;5.93;;;3.03;;
33108;SDS011;19481;51.118;6.940;2023-11-21T10:20:00;6.78;;;2.30;;
33108;SDS011;19481;51.118;6.940;2023-11-21T10:25:06;7.22;;;2.20;;
33108;SDS011;19481;51.118;6.940;2023-11-21T10:30:10;7.50;;;2.22;;
33108;SDS011;19481;51.118;6.940;2023-11-21T10:35:12;10.65;;;3.15;;
33108;SDS011;19481;51.118;6.940;2023-11-21T10:40:14;4.40;;;2.15;;
33108;SDS011;19481;51.118;6.940;2023-11-21T10:45:17;4.65;;;2.75;;
33108;SDS011;19481;51.118;6.940;2023-11-21T10:50:18;6.65;;;2.42;;
33108;SDS011;19481;51.118;6.940;2023-11-21T10:55:20;5.13;;;2.67;;
33108;SDS011;19481;51.118;6.940;2023-11-21T11:00:25;7.60;;;2.63;;
33108;SDS011;19481;51.118;6.940;2023-11-21T11:05:28;4.40;;;1.98;;
33108;SDS011;19481;51.118;6.940;2023-11-21T11:10:32;7.90;;;3.15;;
33108;SDS011;19481;51.118;6.940;2023-11-21T11:15:36;5.10;;;3.10;;
33108;SDS011;19481;51.118;6.940;2023-11-21T11:20:38;3.90;;;2.13;;
33108;SDS011;19481;51.118;6.940;2023-11-21T11:25:46;5.35;;;2.40;;
33108;SDS011;19481;51.118;6.940;2023-11-21T11:31:10;7.85;;;2.28;;
33108;SDS011;19481;51.118;6.940;2023-11-21T11:36:21;6.55;;;2.20;;
33108;SDS011;19481;51.118;6.940;2023-11-21T11:41:27;7.75;;;2.88;;
33108;SDS011;19481;51.118;6.940;2023-11-21T11:46:43;15.13;;;2.95;;
33108;SDS011;19481;51.118;6.940;2023-11-21T11:51:46;5.65;;;2.90;;
33108;SDS011;19481;51.118;6.940;2023-11-21T11:56:48;5.80;;;2.72;;
33108;SDS011;19481;51.118;6.940;2023-11-21T12:01:51;8.63;;;2.63;;
33108;SDS011;19481;51.118;6.940;2023-11-21T12:06:52;5.93;;;2.72;;
33108;SDS011;19481;51.118;6.940;2023-11-21T12:11:55;9.55;;;2.70;;
33108;SDS011;19481;51.118;6.940;2023-11-21T12:16:58;5.03;;;2.10;;
33108;SDS011;19481;51.118;6.940;2023-11-21T12:22:00;5.00;;;2.53;;
33108;SDS011;19481;51.118;6.940;2023-11-21T12:27:02;6.60;;;2.20;;
33108;SDS011;19481;51.118;6.940;2023-11-21T12:32:05;4.95;;;2.50;;
33108;SDS011;19481;51.118;6.940;2023-11-21T12:37:07;6.72;;;2.20;;
33108;SDS011;19481;51.118;6.940;2023-11-21T12:42:09;3.08;;;2.00;;
33108;SDS011;19481;51.118;6.940;2023-11-21T12:47:15;12.75;;;2.58;;
33108;SDS011;19481;51.118;6.940;2023-11-21T12:52:18;2.93;;;1.97;;
33108;SDS011;19481;51.118;6.940;2023-11-21T12:57:19;5.28;;;2.55;;
33108;SDS011;19481;51.118;6.940;2023-11-21T13:02:22;6.53;;;2.13;;
33108;SDS011;19481;51.118;6.940;2023-11-21T13:07:27;5.43;;;2.35;;
33108;SDS011;19481;51.118;6.940;2023-11-21T13:12:29;3.95;;;2.45;;
33108;SDS011;19481;51.118;6.940;2023-11-21T13:17:34;6.05;;;2.25;;
33108;SDS011;19481;51.118;6.940;2023-11-21T13:22:36;12.10;;;2.53;;
33108;SDS011;19481;51.118;6.940;2023-11-21T13:27:38;5.00;;;2.35;;
33108;SDS011;19481;51.118;6.940;2023-11-21T13:32:42;6.03;;;2.97;;
33108;SDS011;19481;51.118;6.940;2023-11-21T13:37:49;5.75;;;2.40;;
33108;SDS011;19481;51.118;6.940;2023-11-21T13:42:55;5.82;;;2.15;;
33108;SDS011;19481;51.118;6.940;2023-11-21T13:48:00;5.63;;;2.90;;
33108;SDS011;19481;51.118;6.940;2023-11-21T13:53:02;4.57;;;2.45;;
33108;SDS011;19481;51.118;6.940;2023-11-21T13:58:10;5.88;;;1.90;;
33108;SDS011;19481;51.118;6.940;2023-11-21T14:03:19;5.15;;;2.78;;
33108;SDS011;19481;51.118;6.940;2023-11-21T14:08:21;3.72;;;2.05;;
33108;SDS011;19481;51.118;6.940;2023-11-21T14:13:28;4.93;;;2.40;;
33108;SDS011;19481;51.118;6.940;2023-11-21T14:18:31;6.95;;;2.65;;
33108;SDS011;19481;51.118;6.940;2023-11-21T14:23:38;3.33;;;1.85;;
33108;SDS011;19481;51.118;6.940;2023-11-21T14:28:39;6.10;;;2.65;;
33108;SDS011;19481;51.118;6.940;2023-11-21T14:33:43;8.85;;;2.63;;
33108;SDS011;19481;51.118;6.940;2023-11-21T14:38:45;5.55;;;2.65;;
33108;SDS011;19481;51.118;6.940;2023-11-21T14:43:47;8.00;;;3.22;;
33108;SDS011;19481;51.118;6.940;2023-11-21T14:48:51;4.03;;;2.75;;
33108;SDS011;19481;51.118;6.940;2023-11-21T14:54:07;14.43;;;3.63;;
33108;SDS011;19481;51.118;6.940;2023-11-21T14:59:10;12.38;;;3.17;;
33108;SDS011;19481;51.118;6.940;2023-11-21T15:04:17;11.32;;;3.15;;
33108;SDS011;19481;51.118;6.940;2023-11-21T15:09:31;7.40;;;2.72;;
33108;SDS011;19481;51.118;6.940;2023-11-21T15:14:41;5.70;;;2.30;;
33108;SDS011;19481;51.118;6.940;2023-11-21T15:19:47;2.08;;;1.52;;
33108;SDS011;19481;51.118;6.940;2023-11-21T15:24:48;2.45;;;1.52;;
33108;SDS011;19481;51.118;6.940;2023-11-21T15:29:50;2.65;;;1.67;;
33108;SDS011;19481;51.118;6.940;2023-11-21T15:34:53;4.55;;;2.30;;
33108;SDS011;19481;51.118;6.940;2023-11-21T15:39:55;6.43;;;1.90;;
33108;SDS011;19481;51.118;6.940;2023-11-21T15:44:57;1.58;;;1.48;;
33108;SDS011;19481;51.118;6.940;2023-11-21T15:50:00;1.70;;;1.38;;
33108;SDS011;19481;51.118;6.940;2023-11-21T15:55:04;2.20;;;1.45;;
33108;SDS011;19481;51.118;6.940;2023-11-21T16:00:07;2.50;;;1.60;;
33108;SDS011;19481;51.118;6.940;2023-11-21T16:05:17;2.50;;;1.50;;
33108;SDS011;19481;51.118;6.940;2023-11-21T16:10:19;5.97;;;2.58;;
33108;SDS011;19481;51.118;6.940;2023-11-21T16:15:20;5.25;;;1.40;;
33108;SDS011;19481;51.118;6.940;2023-11-21T16:20:24;2.05;;;1.65;;
33108;SDS011;19481;51.118;6.940;2023-11-21T16:25:26;4.22;;;2.13;;
33108;SDS011;19481;51.118;6.940;2023-11-21T16:30:27;1.65;;;1.35;;
33108;SDS011;19481;51.118;6.940;2023-11-21T16:35:32;2.25;;;1.55;;
33108;SDS011;19481;51.118;6.940;2023-11-21T16:40:33;1.48;;;1.35;;
33108;SDS011;19481;51.118;6.940;2023-11-21T16:45:35;2.25;;;1.92;;
33108;SDS011;19481;51.118;6.940;2023-11-21T16:50:38;1.65;;;1.20;;
33108;SDS011;19481;51.118;6.940;2023-11-21T16:55:44;1.38;;;1.02;;
33108;SDS011;19481;51.118;6.940;2023-11-21T17:00:45;1.98;;;1.38;;
33108;SDS011;19481;51.118;6.940;2023-11-21T17:05:48;1.33;;;1.25;;
33108;SDS011;19481;51.118;6.940;2023-11-21T17:10:50;2.00;;;1.52;;
33108;SDS011;19481;51.118;6.940;2023-11-21T17:15:52;2.85;;;1.15;;
33108;SDS011;19481;51.118;6.940;2023-11-21T17:20:55;2.35;;;1.02;;
33108;SDS011;19481;51.118;6.940;2023-11-21T17:25:57;4.65;;;1.42;;
33108;SDS011;19481;51.118;6.940;2023-11-21T17:30:58;4.57;;;1.50;;
33108;SDS011;19481;51.118;6.940;2023-11-21T17:36:01;3.15;;;1.52;;
33108;SDS011;19481;51.118;6.940;2023-11-21T17:41:04;2.67;;;1.88;;
33108;SDS011;19481;51.118;6.940;2023-11-21T17:46:06;2.95;;;1.77;;
33108;SDS011;19481;51.118;6.940;2023-11-21T17:51:10;1.95;;;1.83;;
33108;SDS011;19481;51.118;6.940;2023-11-21T17:56:12;2.67;;;1.60;;
33108;SDS011;19481;51.118;6.940;2023-11-21T18:01:16;2.45;;;1.42;;
33108;SDS011;19481;51.118;6.940;2023-11-21T18:06:19;1.77;;;1.67;;
33108;SDS011;19481;51.118;6.940;2023-11-21T18:11:20;4.15;;;2.03;;
33108;SDS011;19481;51.118;6.940;2023-11-21T18:16:22;1.67;;;1.33;;
33108;SDS011;19481;51.118;6.940;2023-11-21T18:21:25;1.38;;;1.27;;
33108;SDS011;19481;51.118;6.940;2023-11-21T18:26:26;3.75;;;1.77;;
33108;SDS011;19481;51.118;6.940;2023-11-21T18:31:29;1.55;;;1.35;;
33108;SDS011;19481;51.118;6.940;2023-11-21T18:36:32;2.15;;;1.40;;
33108;SDS011;19481;51.118;6.940;2023-11-21T18:41:33;1.52;;;1.30;;
33108;SDS011;19481;51.118;6.940;2023-11-21T18:46:35;1.35;;;1.20;;
33108;SDS011;19481;51.118;6.940;2023-11-21T18:51:39;1.38;;;1.20;;
33108;SDS011;19481;51.118;6.940;2023-11-21T18:56:40;2.00;;;1.60;;
33108;SDS011;19481;51.118;6.940;2023-11-21T19:01:42;3.72;;;1.33;;
33108;SDS011;19481;51.118;6.940;2023-11-21T19:06:45;2.90;;;1.45;;
33108;SDS011;19481;51.118;6.940;2023-11-21T19:11:47;1.58;;;1.25;;
33108;SDS011;19481;51.118;6.940;2023-11-21T19:16:48;2.58;;;1.13;;
33108;SDS011;19481;51.118;6.940;2023-11-21T19:21:51;1.58;;;1.42;;
33108;SDS011;19481;51.118;6.940;2023-11-21T19:26:53;1.33;;;1.23;;
33108;SDS011;19481;51.118;6.940;2023-11-21T19:31:55;1.55;;;1.27;;
33108;SDS011;19481;51.118;6.940;2023-11-21T19:36:58;1.05;;;0.93;;
33108;SDS011;19481;51.118;6.940;2023-11-21T19:42:00;1.13;;;1.10;;
33108;SDS011;19481;51.118;6.940;2023-11-21T19:47:03;1.83;;;1.55;;
33108;SDS011;19481;51.118;6.940;2023-11-21T19:52:06;3.00;;;1.70;;
33108;SDS011;19481;51.118;6.940;2023-11-21T19:57:08;1.40;;;1.23;;
33108;SDS011;19481;51.118;6.940;2023-11-21T20:02:12;1.27;;;1.25;;
33108;SDS011;19481;51.118;6.940;2023-11-21T20:07:14;1.77;;;1.20;;
33108;SDS011;19481;51.118;6.940;2023-11-21T20:12:21;1.35;;;1.25;;
33108;SDS011;19481;51.118;6.940;2023-11-21T20:17:22;3.78;;;1.40;;
33108;SDS011;19481;51.118;6.940;2023-11-21T20:22:26;1.63;;;1.20;;
33108;SDS011;19481;51.118;6.940;2023-11-21T20:27:29;3.20;;;1.20;;
33108;SDS011;19481;51.118;6.940;2023-11-21T20:32:31;2.17;;;1.65;;
33108;SDS011;19481;51.118;6.940;2023-11-21T20:37:36;1.48;;;1.38;;
33108;SDS011;19481;51.118;6.940;2023-11-21T20:42:37;3.58;;;1.73;;
33108;SDS011;19481;51.118;6.940;2023-11-21T20:47:42;1.52;;;1.42;;
33108;SDS011;19481;51.118;6.940;2023-11-21T20:52:45;3.20;;;1.80;;
33108;SDS011;19481;51.118;6.940;2023-11-21T20:57:47;1.58;;;1.48;;
33108;SDS011;19481;51.118;6.940;2023-11-21T21:02:49;1.52;;;1.42;;
33108;SDS011;19481;51.118;6.940;2023-11-21T21:07:54;2.83;;;1.73;;
33108;SDS011;19481;51.118;6.940;2023-11-21T21:12:55;2.85;;;1.70;;
33108;SDS011;19481;51.118;6.940;2023-11-21T21:17:57;13.55;;;1.58;;
33108;SDS011;19481;51.118;6.940;2023-11-21T21:23:02;2.58;;;1.63;;
33108;SDS011;19481;51.118;6.940;2023-11-21T21:28:04;2.80;;;1.77;;
33108;SDS011;19481;51.118;6.940;2023-11-21T21:33:06;2.03;;;1.60;;
33108;SDS011;19481;51.118;6.940;2023-11-21T21:38:09;1.88;;;1.50;;
33108;SDS011;19481;51.118;6.940;2023-11-21T21:43:11;2.17;;;1.58;;
33108;SDS011;19481;51.118;6.940;2023-11-21T21:48:13;1.95;;;1.50;;
33108;SDS011;19481;51.118;6.940;2023-11-21T21:53:16;3.90;;;1.67;;
33108;SDS011;19481;51.118;6.940;2023-11-21T21:58:17;3.40;;;1.63;;
33108;SDS011;19481;51.118;6.940;2023-11-21T22:03:19;2.63;;;1.52;;
33108;SDS011;19481;51.118;6.940;2023-11-21T22:08:22;2.17;;;1.30;;
33108;SDS011;19481;51.118;6.940;2023-11-21T22:13:24;7.50;;;1.83;;
33108;SDS011;19481;51.118;6.940;2023-11-21T22:18:25;2.53;;;1.27;;
33108;SDS011;19481;51.118;6.940;2023-11-21T22:23:28;1.30;;;1.20;;
33108;SDS011;19481;51.118;6.940;2023-11-21T22:28:30;2.10;;;1.50;;
33108;SDS011;19481;51.118;6.940;2023-11-21T22:33:32;2.38;;;1.75;;
33108;SDS011;19481;51.118;6.940;2023-11-21T22:38:35;1.30;;;1.20;;
33108;SDS011;19481;51.118;6.940;2023-11-21T22:43:37;1.50;;;1.38;;
33108;SDS011;19481;51.118;6.940;2023-11-21T22:48:39;1.88;;;1.45;;
33108;SDS011;19481;51.118;6.940;2023-11-21T22:53:42;2.38;;;1.42;;
33108;SDS011;19481;51.118;6.940;2023-11-21T22:58:43;2.42;;;1.33;;
33108;SDS011;19481;51.118;6.940;2023-11-21T23:03:45;1.67;;;1.58;;
33108;SDS011;19481;51.118;6.940;2023-11-21T23:08:48;1.80;;;1.35;;
33108;SDS011;19481;51.118;6.940;2023-11-21T23:13:49;3.10;;;1.63;;
33108;SDS011;19481;51.118;6.940;2023-11-21T23:18:51;2.00;;;1.45;;
33108;SDS011;19481;51.118;6.940;2023-11-21T23:23:54;2.50;;;1.70;;
33108;SDS011;19481;51.118;6.940;2023-11-21T23:28:56;2.72;;;1.30;;
33108;SDS011;19481;51.118;6.940;2023-11-21T23:33:58;2.55;;;1.38;;
33108;SDS011;19481;51.118;6.940;2023-11-21T23:39:01;1.92;;;1.48;;
33108;SDS011;19481;51.118;6.940;2023-11-21T23:44:04;2.28;;;1.63;;
33108;SDS011;19481;51.118;6.940;2023-11-21T23:49:06;2.17;;;1.40;;
33108;SDS011;19481;51.118;6.940;2023-11-21T23:54:09;4.60;;;1.25;;
33108;SDS011;19481;51.118;6.940;2023-11-21T23:59:11;1.35;;;1.25;;
